Time;durP1;ratioP1;P1;durP2;ratioP2;P2;SDS_P1;SDS_P2;PMS_P1;PMS_P2;Temp;Humidity;BMP_temperature;BMP_pressure;BME280_temperature;BME280_humidity;BME280_pressure;Samples;Min_cycle;Max_cycle;Signal;HPM_P1;HPM_P2
2021/09/17 00:01:11;;;;;;;7.53;3.63;;;;;;;;;;5071165;28;20062;-65
2021/09/17 00:03:36;;;;;;;9.10;3.70;;;;;;;;;;5072577;28;20758;-65
2021/09/17 00:06:02;;;;;;;6.57;3.65;;;;;;;;;;5072371;28;20368;-63
2021/09/17 00:08:27;;;;;;;5.25;3.40;;;;;;;;;;5072073;28;20392;-65
2021/09/17 00:10:52;;;;;;;7.10;3.37;;;;;;;;;;5072940;28;20042;-64
2021/09/17 00:13:17;;;;;;;12.53;3.60;;;;;;;;;;5072446;28;20271;-66
2021/09/17 00:15:42;;;;;;;7.55;3.72;;;;;;;;;;5072740;28;20345;-65
2021/09/17 00:18:08;;;;;;;6.05;3.97;;;;;;;;;;5071934;28;20124;-66
2021/09/17 00:20:33;;;;;;;10.63;3.55;;;;;;;;;;5070361;28;20024;-65
2021/09/17 00:22:58;;;;;;;8.68;3.47;;;;;;;;;;5071209;28;20039;-68
2021/09/17 00:25:23;;;;;;;10.73;4.47;;;;;;;;;;5072196;28;20025;-65
2021/09/17 00:27:48;;;;;;;8.83;3.83;;;;;;;;;;5071401;28;20738;-64
2021/09/17 00:30:14;;;;;;;12.68;3.70;;;;;;;;;;5071790;28;20267;-65
2021/09/17 00:32:39;;;;;;;7.25;3.78;;;;;;;;;;5071494;28;20370;-65
2021/09/17 00:35:05;;;;;;;9.25;3.90;;;;;;;;;;5071922;28;20107;-66
2021/09/17 00:37:30;;;;;;;7.18;3.47;;;;;;;;;;5071478;28;20020;-65
2021/09/17 00:39:55;;;;;;;9.23;3.80;;;;;;;;;;5071657;28;20111;-65
2021/09/17 00:42:20;;;;;;;9.40;3.92;;;;;;;;;;5071360;28;20055;-64
2021/09/17 00:44:46;;;;;;;9.45;3.83;;;;;;;;;;5072033;28;20033;-65
2021/09/17 00:47:11;;;;;;;9.20;4.45;;;;;;;;;;5071634;28;20070;-65
2021/09/17 00:49:36;;;;;;;11.90;4.87;;;;;;;;;;5071945;28;20099;-63
2021/09/17 00:52:01;;;;;;;11.40;4.47;;;;;;;;;;5071064;28;20788;-68
2021/09/17 00:54:28;;;;;;;12.07;4.60;;;;;;;;;;5071275;28;20301;-62
2021/09/17 00:56:53;;;;;;;9.57;4.38;;;;;;;;;;5071571;28;20107;-64
2021/09/17 00:59:18;;;;;;;17.30;4.82;;;;;;;;;;5071593;28;20111;-63
2021/09/17 01:01:43;;;;;;;13.67;4.43;;;;;;;;;;5070097;28;20029;-68
2021/09/17 01:04:09;;;;;;;9.30;4.18;;;;;;;;;;5070850;28;20265;-63
2021/09/17 01:06:35;;;;;;;14.98;5.40;;;;;;;;;;5070968;28;20461;-65
2021/09/17 01:09:00;;;;;;;9.95;5.05;;;;;;;;;;5069485;28;20736;-63
2021/09/17 01:11:25;;;;;;;10.18;4.97;;;;;;;;;;5070668;28;20421;-63
2021/09/17 01:13:51;;;;;;;18.60;5.13;;;;;;;;;;5070758;28;20020;-66
2021/09/17 01:16:16;;;;;;;12.77;5.50;;;;;;;;;;5070791;28;20054;-64
2021/09/17 01:18:41;;;;;;;10.18;5.60;;;;;;;;;;5070759;28;20028;-64
2021/09/17 01:21:06;;;;;;;14.95;6.15;;;;;;;;;;5071316;28;20043;-64
2021/09/17 01:23:32;;;;;;;12.85;4.97;;;;;;;;;;5070749;28;20040;-65
2021/09/17 01:25:57;;;;;;;14.20;5.60;;;;;;;;;;5069865;28;20098;-63
2021/09/17 01:28:28;;;;;;;15.82;4.90;;;;;;;;;;5070886;28;20285;-65
2021/09/17 01:30:54;;;;;;;8.75;5.05;;;;;;;;;;5070457;28;20028;-64
2021/09/17 01:33:19;;;;;;;16.77;4.78;;;;;;;;;;5070090;28;20027;-63
2021/09/17 01:35:44;;;;;;;11.52;5.60;;;;;;;;;;5071059;28;20047;-63
2021/09/17 01:38:10;;;;;;;9.07;4.70;;;;;;;;;;5070393;28;20029;-63
2021/09/17 01:40:35;;;;;;;12.20;5.22;;;;;;;;;;5070675;28;20107;-66
2021/09/17 01:43:00;;;;;;;13.88;5.15;;;;;;;;;;5070052;28;20067;-62
2021/09/17 01:45:26;;;;;;;9.13;5.17;;;;;;;;;;5070440;28;20089;-64
2021/09/17 01:47:51;;;;;;;9.15;4.78;;;;;;;;;;5070414;28;20265;-65
2021/09/17 01:50:16;;;;;;;11.93;4.67;;;;;;;;;;5070360;28;20033;-64
2021/09/17 01:52:42;;;;;;;10.73;4.53;;;;;;;;;;5070266;28;20312;-64
2021/09/17 01:55:07;;;;;;;12.57;4.95;;;;;;;;;;5070406;28;20067;-63
2021/09/17 01:57:32;;;;;;;8.50;4.75;;;;;;;;;;5069862;28;20373;-64
2021/09/17 01:59:58;;;;;;;11.98;5.63;;;;;;;;;;5070080;28;20064;-64
2021/09/17 02:02:23;;;;;;;10.20;5.10;;;;;;;;;;5070236;28;20103;-64
2021/09/17 02:04:48;;;;;;;10.20;4.60;;;;;;;;;;5065793;28;20067;-63
2021/09/17 02:07:14;;;;;;;12.00;4.87;;;;;;;;;;5061589;28;20009;-63
2021/09/17 02:09:39;;;;;;;13.35;4.88;;;;;;;;;;5066529;28;20271;-62
2021/09/17 02:12:05;;;;;;;13.63;5.25;;;;;;;;;;5064174;28;20009;-65
2021/09/17 02:14:30;;;;;;;13.52;6.10;;;;;;;;;;5067504;28;20028;-64
2021/09/17 02:16:55;;;;;;;11.90;5.28;;;;;;;;;;5061800;28;20016;-62
2021/09/17 02:19:21;;;;;;;12.13;4.50;;;;;;;;;;5070316;28;20024;-63
2021/09/17 02:21:49;;;;;;;10.20;5.43;;;;;;;;;;5070174;28;20024;-63
2021/09/17 02:24:15;;;;;;;11.30;6.55;;;;;;;;;;5061788;28;20713;-66
2021/09/17 02:26:40;;;;;;;15.88;5.47;;;;;;;;;;5066559;28;20023;-63
2021/09/17 02:29:05;;;;;;;14.40;4.65;;;;;;;;;;5053996;28;20090;-64
2021/09/17 02:31:31;;;;;;;13.35;6.18;;;;;;;;;;5064815;28;20012;-65
2021/09/17 02:33:56;;;;;;;10.10;4.50;;;;;;;;;;5068557;28;20753;-64
2021/09/17 02:36:21;;;;;;;12.60;5.03;;;;;;;;;;5067838;28;20024;-64
2021/09/17 02:38:46;;;;;;;9.43;4.47;;;;;;;;;;5067406;28;20344;-64
2021/09/17 02:41:11;;;;;;;8.70;4.67;;;;;;;;;;5066158;28;20298;-64
2021/09/17 02:43:36;;;;;;;9.90;4.32;;;;;;;;;;5064617;28;20267;-63
2021/09/17 02:46:02;;;;;;;11.38;5.53;;;;;;;;;;5055363;28;20008;-63
2021/09/17 02:48:28;;;;;;;11.23;5.20;;;;;;;;;;5066328;28;20029;-64
2021/09/17 02:50:53;;;;;;;10.38;5.15;;;;;;;;;;5055226;28;20028;-64
2021/09/17 02:53:18;;;;;;;10.75;5.18;;;;;;;;;;5069301;28;20488;-63
2021/09/17 02:55:43;;;;;;;7.37;5.23;;;;;;;;;;5069348;28;20415;-64
2021/09/17 02:58:08;;;;;;;12.13;4.90;;;;;;;;;;5069410;28;20286;-63
2021/09/17 03:00:35;;;;;;;12.43;5.53;;;;;;;;;;5070029;28;20273;-65
2021/09/17 03:03:00;;;;;;;16.30;6.40;;;;;;;;;;5069279;28;20297;-65
2021/09/17 03:05:25;;;;;;;9.52;6.22;;;;;;;;;;5069796;28;20021;-63
2021/09/17 03:07:51;;;;;;;13.50;6.03;;;;;;;;;;5069254;28;20020;-64
2021/09/17 03:10:16;;;;;;;10.93;6.35;;;;;;;;;;5069209;28;20477;-64
2021/09/17 03:12:41;;;;;;;8.52;5.18;;;;;;;;;;5069442;28;20660;-63
2021/09/17 03:15:07;;;;;;;7.03;4.75;;;;;;;;;;5070189;28;20027;-66
2021/09/17 03:17:32;;;;;;;14.75;5.22;;;;;;;;;;5069919;28;20032;-63
2021/09/17 03:19:57;;;;;;;16.15;5.93;;;;;;;;;;5073345;28;20083;-63
2021/09/17 03:22:22;;;;;;;10.13;5.07;;;;;;;;;;5073124;28;20036;-66
2021/09/17 03:24:47;;;;;;;11.70;5.43;;;;;;;;;;5072787;28;20316;-64
2021/09/17 03:27:13;;;;;;;12.63;7.03;;;;;;;;;;5073185;28;20350;-67
2021/09/17 03:29:38;;;;;;;16.20;6.55;;;;;;;;;;5069327;28;20306;-64
2021/09/17 03:32:03;;;;;;;10.10;6.23;;;;;;;;;;5063537;28;20111;-64
2021/09/17 03:34:28;;;;;;;12.90;6.50;;;;;;;;;;5071092;28;20345;-64
2021/09/17 03:36:54;;;;;;;11.43;6.40;;;;;;;;;;5068852;28;20027;-63
2021/09/17 03:39:19;;;;;;;11.57;6.32;;;;;;;;;;5069673;28;20389;-64
2021/09/17 03:41:45;;;;;;;10.60;5.30;;;;;;;;;;5071014;28;20031;-67
2021/09/17 03:44:10;;;;;;;11.45;6.30;;;;;;;;;;5070701;28;20579;-63
2021/09/17 03:46:36;;;;;;;18.85;6.38;;;;;;;;;;5070078;28;20087;-64
2021/09/17 03:49:01;;;;;;;9.60;6.30;;;;;;;;;;5071056;28;20543;-64
2021/09/17 03:51:26;;;;;;;15.25;6.50;;;;;;;;;;5070968;28;20042;-64
2021/09/17 03:53:51;;;;;;;12.90;6.70;;;;;;;;;;5070412;28;20024;-64
2021/09/17 03:56:17;;;;;;;16.37;7.50;;;;;;;;;;5069606;28;20642;-63
2021/09/17 03:58:42;;;;;;;15.38;6.82;;;;;;;;;;5066310;28;20289;-63
2021/09/17 04:01:07;;;;;;;15.45;7.00;;;;;;;;;;5072215;28;20017;-63
2021/09/17 04:03:32;;;;;;;19.80;6.85;;;;;;;;;;5072302;28;20099;-64
2021/09/17 04:05:58;;;;;;;11.43;7.60;;;;;;;;;;5072898;28;20095;-63
2021/09/17 04:08:23;;;;;;;17.60;7.37;;;;;;;;;;5072738;28;20266;-63
2021/09/17 04:10:48;;;;;;;12.13;7.47;;;;;;;;;;5072601;28;20305;-63
2021/09/17 04:13:13;;;;;;;12.05;7.03;;;;;;;;;;5071909;28;20935;-63
2021/09/17 04:15:39;;;;;;;12.80;6.85;;;;;;;;;;5066778;28;20169;-65
2021/09/17 04:18:04;;;;;;;14.87;7.13;;;;;;;;;;5071405;28;20032;-64
2021/09/17 04:20:29;;;;;;;12.83;5.30;;;;;;;;;;5072244;28;20267;-64
2021/09/17 04:22:54;;;;;;;9.20;4.97;;;;;;;;;;5071873;28;20362;-64
2021/09/17 04:25:21;;;;;;;9.23;5.07;;;;;;;;;;5071800;28;20047;-64
2021/09/17 04:27:46;;;;;;;9.45;5.38;;;;;;;;;;5071733;28;20262;-64
2021/09/17 04:30:13;;;;;;;9.20;5.07;;;;;;;;;;5071067;28;20476;-64
2021/09/17 04:32:38;;;;;;;12.00;6.05;;;;;;;;;;5071904;28;20066;-64
2021/09/17 04:35:04;;;;;;;7.78;4.82;;;;;;;;;;5072128;28;20026;-64
2021/09/17 04:37:29;;;;;;;14.55;6.55;;;;;;;;;;5070779;28;20032;-65
2021/09/17 04:39:54;;;;;;;8.95;5.07;;;;;;;;;;5071622;28;20020;-63
2021/09/17 04:42:19;;;;;;;12.25;7.22;;;;;;;;;;5070902;28;20016;-64
2021/09/17 04:44:45;;;;;;;16.35;7.35;;;;;;;;;;5071649;28;20469;-63
2021/09/17 04:47:10;;;;;;;18.53;7.43;;;;;;;;;;5072176;28;20487;-63
2021/09/17 04:49:35;;;;;;;11.82;7.30;;;;;;;;;;5071966;28;20267;-63
2021/09/17 04:52:00;;;;;;;16.23;7.93;;;;;;;;;;5071600;28;20028;-63
2021/09/17 04:54:25;;;;;;;12.38;7.47;;;;;;;;;;5071390;28;20031;-63
2021/09/17 04:56:51;;;;;;;16.27;7.55;;;;;;;;;;5071852;28;20032;-63
2021/09/17 04:59:16;;;;;;;13.10;6.80;;;;;;;;;;5071434;28;20056;-66
2021/09/17 05:01:41;;;;;;;12.77;6.65;;;;;;;;;;5070655;28;20021;-63
2021/09/17 05:04:06;;;;;;;16.92;7.85;;;;;;;;;;5071230;28;20099;-66
2021/09/17 05:06:31;;;;;;;9.97;6.57;;;;;;;;;;5062474;28;20041;-68
2021/09/17 05:08:57;;;;;;;11.52;8.18;;;;;;;;;;5067498;28;20635;-65
2021/09/17 05:11:22;;;;;;;14.35;7.47;;;;;;;;;;5068468;28;20020;-65
2021/09/17 05:13:47;;;;;;;15.20;8.18;;;;;;;;;;5068365;28;20392;-63
2021/09/17 05:16:13;;;;;;;15.75;8.15;;;;;;;;;;5068652;28;20480;-66
2021/09/17 05:18:38;;;;;;;13.70;8.70;;;;;;;;;;5068581;28;20110;-66
2021/09/17 05:21:03;;;;;;;18.73;8.40;;;;;;;;;;5069256;28;20274;-65
2021/09/17 05:23:28;;;;;;;15.03;9.07;;;;;;;;;;5067867;28;20289;-66
2021/09/17 05:25:53;;;;;;;17.83;9.47;;;;;;;;;;5068606;28;20963;-65
2021/09/17 05:28:18;;;;;;;18.02;9.90;;;;;;;;;;5068917;28;20262;-66
2021/09/17 05:30:44;;;;;;;19.27;9.13;;;;;;;;;;5068341;28;20024;-65
2021/09/17 05:33:09;;;;;;;30.40;11.73;;;;;;;;;;5068575;28;20634;-66
2021/09/17 05:35:34;;;;;;;20.90;10.23;;;;;;;;;;5069021;28;20263;-66
2021/09/17 05:37:59;;;;;;;19.93;10.77;;;;;;;;;;5068602;28;20379;-68
2021/09/17 05:40:24;;;;;;;18.15;11.05;;;;;;;;;;5068480;28;20779;-65
2021/09/17 05:42:50;;;;;;;25.77;11.50;;;;;;;;;;5068040;28;20448;-65
2021/09/17 05:45:15;;;;;;;21.55;13.05;;;;;;;;;;5067910;28;20024;-65
2021/09/17 05:47:43;;;;;;;19.27;13.20;;;;;;;;;;5068760;28;20479;-64
2021/09/17 05:50:09;;;;;;;18.17;11.05;;;;;;;;;;5061745;28;20280;-64
2021/09/17 05:52:34;;;;;;;21.17;12.07;;;;;;;;;;5068392;28;20020;-69
2021/09/17 05:54:59;;;;;;;17.10;11.02;;;;;;;;;;5069011;28;20029;-65
2021/09/17 05:57:24;;;;;;;25.48;12.68;;;;;;;;;;5068634;28;20020;-67
2021/09/17 05:59:50;;;;;;;19.92;12.43;;;;;;;;;;5063933;22;20045;-70
2021/09/17 06:02:15;;;;;;;22.40;12.00;;;;;;;;;;5045144;28;20021;-70
2021/09/17 06:04:40;;;;;;;22.38;13.63;;;;;;;;;;5041586;28;20314;-70
2021/09/17 06:07:05;;;;;;;20.27;12.17;;;;;;;;;;5048923;28;20584;-70
2021/09/17 06:09:30;;;;;;;26.23;14.53;;;;;;;;;;5049933;28;20268;-70
2021/09/17 06:11:56;;;;;;;26.63;12.47;;;;;;;;;;5050103;28;20294;-70
2021/09/17 06:14:21;;;;;;;22.52;12.90;;;;;;;;;;5049868;28;20297;-70
2021/09/17 06:16:46;;;;;;;19.67;12.40;;;;;;;;;;5047282;28;20028;-70
2021/09/17 06:19:12;;;;;;;25.25;12.40;;;;;;;;;;5042062;28;20041;-70
2021/09/17 06:21:37;;;;;;;18.40;10.27;;;;;;;;;;5048878;28;20381;-70
2021/09/17 06:24:02;;;;;;;31.58;10.18;;;;;;;;;;5049371;28;20052;-70
2021/09/17 06:26:31;;;;;;;13.30;9.32;;;;;;;;;;5039077;28;20022;-71
2021/09/17 06:28:58;;;;;;;18.58;10.75;;;;;;;;;;5043629;28;20377;-70
2021/09/17 06:31:23;;;;;;;19.60;12.20;;;;;;;;;;5039822;28;20035;-70
2021/09/17 06:33:48;;;;;;;24.08;12.35;;;;;;;;;;5043065;28;20029;-69
2021/09/17 06:36:14;;;;;;;19.73;12.90;;;;;;;;;;5034160;28;20025;-70
2021/09/17 06:38:40;;;;;;;19.00;13.23;;;;;;;;;;5050230;28;20685;-70
2021/09/17 06:41:05;;;;;;;20.98;12.93;;;;;;;;;;5050042;28;20021;-69
2021/09/17 06:43:30;;;;;;;26.75;14.45;;;;;;;;;;5050124;28;20025;-70
2021/09/17 06:45:55;;;;;;;19.88;13.50;;;;;;;;;;5049754;28;20025;-70
2021/09/17 06:48:20;;;;;;;22.63;12.87;;;;;;;;;;5050211;28;20074;-69
2021/09/17 06:50:46;;;;;;;22.13;12.00;;;;;;;;;;5050036;28;20692;-70
2021/09/17 06:53:11;;;;;;;23.13;12.50;;;;;;;;;;5050551;28;20301;-70
2021/09/17 06:55:36;;;;;;;22.73;12.10;;;;;;;;;;5052257;28;20547;-70
2021/09/17 06:58:02;;;;;;;24.02;12.82;;;;;;;;;;5051591;28;20739;-70
2021/09/17 07:00:29;;;;;;;28.40;13.00;;;;;;;;;;5048160;28;20070;-70
2021/09/17 07:02:54;;;;;;;20.58;12.35;;;;;;;;;;5052475;28;20116;-70
2021/09/17 07:05:20;;;;;;;20.90;12.07;;;;;;;;;;5053620;28;20067;-70
2021/09/17 07:07:45;;;;;;;19.13;11.73;;;;;;;;;;5053316;28;20013;-69
2021/09/17 07:10:12;;;;;;;24.67;12.90;;;;;;;;;;5049366;28;20048;-70
2021/09/17 07:12:37;;;;;;;22.30;13.15;;;;;;;;;;5052896;28;20029;-70
2021/09/17 07:15:03;;;;;;;21.15;12.65;;;;;;;;;;5053598;28;20081;-70
2021/09/17 07:17:28;;;;;;;19.92;12.95;;;;;;;;;;5053299;28;20074;-70
2021/09/17 07:19:53;;;;;;;22.60;11.93;;;;;;;;;;5053011;28;20017;-69
2021/09/17 07:22:20;;;;;;;23.63;12.70;;;;;;;;;;5053225;28;20035;-70
2021/09/17 07:24:45;;;;;;;29.70;13.82;;;;;;;;;;5053524;28;20271;-69
2021/09/17 07:27:11;;;;;;;24.25;12.20;;;;;;;;;;5052826;28;20021;-70
2021/09/17 07:29:36;;;;;;;21.95;12.82;;;;;;;;;;5052340;28;20036;-70
2021/09/17 07:32:01;;;;;;;19.50;11.20;;;;;;;;;;5053004;28;20503;-69
2021/09/17 07:34:28;;;;;;;26.75;10.95;;;;;;;;;;5053226;28;20504;-70
2021/09/17 07:36:53;;;;;;;25.02;11.65;;;;;;;;;;5052914;28;20464;-70
2021/09/17 07:39:19;;;;;;;22.92;13.80;;;;;;;;;;5052727;28;20075;-70
2021/09/17 07:41:44;;;;;;;18.97;12.33;;;;;;;;;;5052110;28;20047;-70
2021/09/17 07:44:09;;;;;;;20.17;12.33;;;;;;;;;;5052902;28;20288;-70
2021/09/17 07:46:34;;;;;;;25.97;13.53;;;;;;;;;;5053215;28;20750;-70
2021/09/17 07:48:59;;;;;;;25.63;13.83;;;;;;;;;;5052591;28;20268;-70
2021/09/17 07:51:24;;;;;;;24.13;13.67;;;;;;;;;;5052813;28;20826;-70
2021/09/17 07:53:50;;;;;;;26.98;15.02;;;;;;;;;;5052691;28;20282;-70
2021/09/17 07:56:15;;;;;;;29.52;13.60;;;;;;;;;;5051894;28;20024;-70
2021/09/17 07:58:40;;;;;;;31.90;14.30;;;;;;;;;;5044640;28;20036;-70
2021/09/17 08:01:05;;;;;;;23.02;12.57;;;;;;;;;;5049963;28;20095;-70
2021/09/17 08:03:32;;;;;;;23.60;12.57;;;;;;;;;;5052257;28;20384;-70
2021/09/17 08:06:00;;;;;;;23.85;12.45;;;;;;;;;;5051985;28;20285;-70
2021/09/17 08:08:26;;;;;;;25.38;13.07;;;;;;;;;;5053050;28;20155;-70
2021/09/17 08:10:51;;;;;;;20.50;13.65;;;;;;;;;;5052020;28;20104;-70
2021/09/17 08:13:17;;;;;;;28.75;15.75;;;;;;;;;;5051655;28;20090;-70
2021/09/17 08:15:42;;;;;;;29.98;14.38;;;;;;;;;;5051932;28;20021;-70
2021/09/17 08:18:07;;;;;;;23.67;13.60;;;;;;;;;;5051757;28;20021;-70
2021/09/17 08:20:32;;;;;;;28.52;13.68;;;;;;;;;;5051653;28;20028;-70
2021/09/17 08:22:57;;;;;;;24.20;12.57;;;;;;;;;;5052202;28;20028;-70
2021/09/17 08:25:23;;;;;;;30.38;14.60;;;;;;;;;;5051673;28;20764;-70
2021/09/17 08:27:48;;;;;;;30.33;13.50;;;;;;;;;;5051579;28;20044;-70
2021/09/17 08:30:13;;;;;;;35.78;13.32;;;;;;;;;;5052029;28;20477;-70
2021/09/17 08:32:39;;;;;;;27.33;14.38;;;;;;;;;;5050185;28;20473;-70
2021/09/17 08:35:08;;;;;;;47.75;14.20;;;;;;;;;;5052294;28;20021;-70
2021/09/17 08:37:33;;;;;;;31.27;13.13;;;;;;;;;;5051698;28;20017;-70
2021/09/17 08:39:59;;;;;;;40.45;14.68;;;;;;;;;;5050827;28;20547;-70
2021/09/17 08:42:24;;;;;;;25.07;13.70;;;;;;;;;;5051367;28;20021;-70
2021/09/17 08:44:49;;;;;;;30.58;13.05;;;;;;;;;;5051712;28;20704;-70
2021/09/17 08:47:17;;;;;;;29.25;12.82;;;;;;;;;;5052646;28;20561;-70
2021/09/17 08:49:44;;;;;;;30.50;13.35;;;;;;;;;;5051230;28;20032;-71
2021/09/17 08:52:09;;;;;;;22.80;11.00;;;;;;;;;;5042225;28;20029;-71
2021/09/17 08:54:34;;;;;;;23.23;10.93;;;;;;;;;;5047111;28;20036;-71
2021/09/17 08:56:59;;;;;;;24.30;11.60;;;;;;;;;;5051937;28;20303;-71
2021/09/17 08:59:24;;;;;;;21.07;11.47;;;;;;;;;;5051066;28;20294;-71
2021/09/17 09:01:49;;;;;;;22.50;8.37;;;;;;;;;;5043188;28;20740;-70
2021/09/17 09:04:14;;;;;;;11.87;5.93;;;;;;;;;;5046131;28;20350;-71
2021/09/17 09:06:42;;;;;;;26.30;11.33;;;;;;;;;;5051551;28;20744;-71
2021/09/17 09:09:14;;;;;;;29.20;12.32;;;;;;;;;;5051323;28;20278;-70
2021/09/17 09:11:39;;;;;;;32.40;13.65;;;;;;;;;;5051252;28;20500;-70
2021/09/17 09:14:06;;;;;;;30.13;12.00;;;;;;;;;;5050692;28;20029;-70
2021/09/17 09:16:33;;;;;;;26.83;12.18;;;;;;;;;;5050114;28;20025;-70
2021/09/17 09:19:14;;;;;;;23.95;12.07;;;;;;;;;;5046805;28;20060;-71
2021/09/17 09:21:39;;;;;;;27.95;12.55;;;;;;;;;;5051413;28;20043;-71
2021/09/17 09:24:09;;;;;;;24.60;12.97;;;;;;;;;;5050930;28;20373;-70
2021/09/17 09:26:34;;;;;;;26.43;12.37;;;;;;;;;;5050507;28;20281;-71
2021/09/17 09:28:59;;;;;;;24.27;12.30;;;;;;;;;;5051082;28;20029;-70
2021/09/17 09:31:24;;;;;;;27.50;12.87;;;;;;;;;;5050415;28;20032;-71
2021/09/17 09:33:49;;;;;;;26.10;11.07;;;;;;;;;;5050545;28;20267;-71
2021/09/17 09:36:21;;;;;;;19.75;11.80;;;;;;;;;;5051138;28;20604;-70
2021/09/17 09:38:48;;;;;;;24.67;11.15;;;;;;;;;;5050393;28;20435;-70
2021/09/17 09:41:17;;;;;;;27.15;11.45;;;;;;;;;;5050400;28;20013;-71
2021/09/17 09:43:59;;;;;;;25.15;11.07;;;;;;;;;;5050538;28;20107;-72
2021/09/17 09:46:28;;;;;;;26.92;11.95;;;;;;;;;;5049422;28;20040;-72
2021/09/17 09:48:57;;;;;;;25.30;11.13;;;;;;;;;;5039673;28;20032;-72
2021/09/17 09:51:22;;;;;;;30.88;12.57;;;;;;;;;;5050568;28;20060;-72
2021/09/17 09:53:47;;;;;;;27.60;13.32;;;;;;;;;;5049983;28;20345;-72
2021/09/17 09:56:12;;;;;;;29.90;11.60;;;;;;;;;;5050683;28;20020;-72
2021/09/17 09:58:38;;;;;;;25.73;12.95;;;;;;;;;;5049882;28;20037;-72
2021/09/17 10:01:03;;;;;;;27.63;11.88;;;;;;;;;;5050096;28;20057;-72
2021/09/17 10:03:28;;;;;;;30.47;13.57;;;;;;;;;;5050198;28;20025;-72
2021/09/17 10:05:54;;;;;;;26.15;13.38;;;;;;;;;;5050071;28;20509;-72
2021/09/17 10:08:19;;;;;;;27.23;12.10;;;;;;;;;;5049018;28;20479;-72
2021/09/17 10:10:45;;;;;;;31.48;14.30;;;;;;;;;;5050258;28;20378;-72
2021/09/17 10:13:10;;;;;;;23.35;11.60;;;;;;;;;;5050358;28;20080;-72
2021/09/17 10:15:35;;;;;;;23.20;12.20;;;;;;;;;;5050320;28;20109;-72
2021/09/17 10:18:00;;;;;;;26.95;13.60;;;;;;;;;;5048735;28;20785;-72
2021/09/17 10:20:34;;;;;;;26.33;14.43;;;;;;;;;;5049789;28;20070;-72
2021/09/17 10:23:20;;;;;;;34.58;14.60;;;;;;;;;;5050193;28;20243;-72
2021/09/17 10:26:02;;;;;;;31.40;15.07;;;;;;;;;;5045892;28;20017;-72
2021/09/17 10:28:27;;;;;;;26.90;13.23;;;;;;;;;;5048382;28;20044;-72
2021/09/17 10:31:07;;;;;;;27.85;14.93;;;;;;;;;;5050151;28;20131;-71
2021/09/17 10:33:32;;;;;;;;;;;;;;;;;;5050601;28;20013;-72
2021/09/17 10:35:58;;;;;;;24.50;14.15;;;;;;;;;;5050601;28;19911;-72
2021/09/17 10:38:27;;;;;;;25.48;14.90;;;;;;;;;;5050110;28;20017;-72
2021/09/17 10:41:04;;;;;;;24.15;14.52;;;;;;;;;;5049717;28;20060;-72
2021/09/17 10:43:46;;;;;;;21.08;13.15;;;;;;;;;;5049945;28;20021;-72
2021/09/17 10:46:17;;;;;;;17.83;11.27;;;;;;;;;;5049852;28;20067;-71
2021/09/17 10:48:43;;;;;;;25.02;14.27;;;;;;;;;;5040897;28;20018;-72
2021/09/17 10:51:10;;;;;;;25.70;13.95;;;;;;;;;;5030420;28;20486;-72
2021/09/17 10:53:41;;;;;;;29.85;12.23;;;;;;;;;;5039415;28;20043;-72
2021/09/17 10:56:14;;;;;;;26.55;13.15;;;;;;;;;;5050125;28;20028;-72
2021/09/17 10:58:39;;;;;;;25.80;12.68;;;;;;;;;;5049582;28;20024;-72
2021/09/17 11:01:12;;;;;;;23.83;12.45;;;;;;;;;;5049521;28;20025;-73
2021/09/17 11:03:46;;;;;;;22.73;12.95;;;;;;;;;;5049837;28;20107;-72
2021/09/17 11:06:25;;;;;;;22.08;12.75;;;;;;;;;;5049862;28;20413;-72
2021/09/17 11:08:58;;;;;;;21.85;11.77;;;;;;;;;;5049291;28;20040;-72
2021/09/17 11:11:32;;;;;;;25.23;11.80;;;;;;;;;;5049058;28;20033;-72
2021/09/17 11:14:02;;;;;;;22.42;11.20;;;;;;;;;;5029819;28;20021;-72
2021/09/17 11:16:28;;;;;;;20.85;12.23;;;;;;;;;;5043547;28;20025;-72
2021/09/17 11:19:09;;;;;;;28.75;12.93;;;;;;;;;;5048284;28;20031;-72
2021/09/17 11:21:38;;;;;;;22.40;12.80;;;;;;;;;;5049640;28;20127;-72
2021/09/17 11:24:05;;;;;;;24.20;13.55;;;;;;;;;;5049886;28;20017;-72
2021/09/17 11:26:31;;;;;;;25.08;11.93;;;;;;;;;;5039256;28;20389;-72
2021/09/17 11:29:10;;;;;;;22.73;13.40;;;;;;;;;;5048804;28;20021;-71
2021/09/17 11:31:36;;;;;;;29.25;15.13;;;;;;;;;;5048621;28;20035;-72
2021/09/17 11:34:06;;;;;;;24.38;13.20;;;;;;;;;;5049140;28;20025;-71
2021/09/17 11:36:37;;;;;;;23.48;13.07;;;;;;;;;;5048695;28;20029;-72
2021/09/17 11:39:11;;;;;;;24.48;12.73;;;;;;;;;;5050666;28;20028;-72
2021/09/17 11:41:37;;;;;;;24.85;14.00;;;;;;;;;;5053287;28;20029;-72
2021/09/17 11:44:03;;;;;;;21.80;12.68;;;;;;;;;;5051510;28;20024;-71
2021/09/17 11:46:28;;;;;;;22.75;11.40;;;;;;;;;;5053245;28;20021;-72
2021/09/17 11:48:53;;;;;;;28.55;12.85;;;;;;;;;;5051503;28;20028;-72
2021/09/17 11:51:20;;;;;;;22.17;11.02;;;;;;;;;;5052749;28;20067;-72
2021/09/17 11:53:46;;;;;;;22.70;13.50;;;;;;;;;;5052651;28;20040;-72
2021/09/17 11:56:11;;;;;;;21.15;13.00;;;;;;;;;;5053238;28;20026;-72
2021/09/17 11:58:42;;;;;;;19.42;11.80;;;;;;;;;;5072804;23;20017;-69
2021/09/17 12:01:22;;;;;;;28.25;13.35;;;;;;;;;;5062287;28;20037;-69
2021/09/17 12:03:49;;;;;;;19.58;11.65;;;;;;;;;;5072435;28;20500;-69
2021/09/17 12:06:15;;;;;;;22.75;13.15;;;;;;;;;;5058014;28;20029;-69
2021/09/17 12:08:40;;;;;;;24.80;12.98;;;;;;;;;;5066929;28;20020;-69
2021/09/17 12:11:05;;;;;;;21.20;13.40;;;;;;;;;;5072416;28;20020;-69
2021/09/17 12:13:31;;;;;;;26.33;12.68;;;;;;;;;;5072082;28;20603;-69
2021/09/17 12:15:57;;;;;;;33.55;14.23;;;;;;;;;;5072239;28;20672;-69
2021/09/17 12:18:26;;;;;;;26.65;16.77;;;;;;;;;;5072374;28;20488;-69
2021/09/17 12:20:55;;;;;;;23.63;15.97;;;;;;;;;;5072594;28;20475;-69
2021/09/17 12:23:22;;;;;;;29.92;15.98;;;;;;;;;;5072098;28;20296;-69
2021/09/17 12:25:49;;;;;;;29.67;17.63;;;;;;;;;;5071760;28;20020;-69
2021/09/17 12:28:19;;;;;;;29.33;16.85;;;;;;;;;;5072130;28;20017;-69
2021/09/17 12:30:44;;;;;;;29.27;17.08;;;;;;;;;;5071857;28;20025;-69
2021/09/17 12:33:12;;;;;;;29.83;17.35;;;;;;;;;;5072018;28;20032;-70
2021/09/17 12:35:39;;;;;;;28.33;16.77;;;;;;;;;;5072290;28;20063;-69
2021/09/17 12:38:06;;;;;;;26.17;15.32;;;;;;;;;;5071653;28;20114;-69
2021/09/17 12:40:32;;;;;;;33.40;18.38;;;;;;;;;;5071922;28;20095;-69
2021/09/17 12:43:02;;;;;;;30.88;17.95;;;;;;;;;;5071573;28;20021;-69
2021/09/17 12:45:27;;;;;;;31.27;19.60;;;;;;;;;;5071614;28;20012;-69
2021/09/17 12:47:53;;;;;;;29.80;18.73;;;;;;;;;;5071700;28;20071;-69
2021/09/17 12:50:19;;;;;;;33.90;20.30;;;;;;;;;;5071178;28;20025;-69
2021/09/17 12:52:45;;;;;;;29.90;19.08;;;;;;;;;;5069173;28;20090;-69
2021/09/17 12:55:40;;;;;;;36.13;22.48;;;;;;;;;;5065099;28;20072;-69
2021/09/17 12:58:05;;;;;;;32.35;20.83;;;;;;;;;;5063461;28;20325;-69
2021/09/17 13:00:32;;;;;;;34.17;22.73;;;;;;;;;;5063246;28;20055;-70
2021/09/17 13:02:57;;;;;;;32.88;22.42;;;;;;;;;;5067284;28;20013;-69
2021/09/17 13:05:23;;;;;;;32.72;22.52;;;;;;;;;;5067515;28;20387;-68
2021/09/17 13:07:48;;;;;;;31.52;19.52;;;;;;;;;;5070933;28;20101;-69
2021/09/17 13:10:13;;;;;;;36.67;20.42;;;;;;;;;;5070949;28;20500;-69
2021/09/17 13:12:39;;;;;;;34.08;21.13;;;;;;;;;;5070706;28;20523;-69
2021/09/17 13:15:05;;;;;;;30.83;21.83;;;;;;;;;;5071160;28;20024;-69
2021/09/17 13:17:30;;;;;;;37.17;20.75;;;;;;;;;;5069657;28;20496;-69
2021/09/17 13:19:55;;;;;;;30.77;21.77;;;;;;;;;;5070727;28;20024;-69
2021/09/17 13:22:21;;;;;;;29.95;20.60;;;;;;;;;;5070284;28;20362;-69
2021/09/17 13:24:46;;;;;;;36.70;23.30;;;;;;;;;;5071045;28;20581;-69
2021/09/17 13:27:11;;;;;;;30.60;19.23;;;;;;;;;;5070490;28;20739;-69
2021/09/17 13:29:36;;;;;;;26.92;19.05;;;;;;;;;;5069986;28;20338;-69
2021/09/17 13:32:02;;;;;;;39.85;23.50;;;;;;;;;;5070473;28;20048;-69
2021/09/17 13:34:27;;;;;;;35.42;21.30;;;;;;;;;;5070479;28;20067;-69
2021/09/17 13:36:52;;;;;;;34.27;20.33;;;;;;;;;;5070446;28;20052;-69
2021/09/17 13:39:17;;;;;;;36.60;21.63;;;;;;;;;;5071468;28;20027;-69
2021/09/17 13:41:42;;;;;;;36.20;21.33;;;;;;;;;;5070435;28;20316;-69
2021/09/17 13:44:08;;;;;;;39.10;21.83;;;;;;;;;;5070295;28;20298;-69
2021/09/17 13:46:33;;;;;;;31.08;22.05;;;;;;;;;;5070224;28;20020;-69
2021/09/17 13:48:58;;;;;;;27.67;20.75;;;;;;;;;;5070200;28;20039;-69
2021/09/17 13:51:23;;;;;;;29.65;21.23;;;;;;;;;;5069416;28;20021;-69
2021/09/17 13:53:49;;;;;;;32.35;21.85;;;;;;;;;;5069901;28;20060;-70
2021/09/17 13:56:14;;;;;;;37.08;20.13;;;;;;;;;;5070568;28;20384;-69
2021/09/17 13:58:39;;;;;;;33.10;20.57;;;;;;;;;;5070067;28;20082;-69
2021/09/17 14:01:04;;;;;;;28.23;19.67;;;;;;;;;;5069786;28;20308;-69
2021/09/17 14:03:29;;;;;;;30.63;20.57;;;;;;;;;;5070075;28;20626;-69
2021/09/17 14:05:56;;;;;;;32.90;19.50;;;;;;;;;;5069848;28;20265;-69
2021/09/17 14:08:21;;;;;;;34.22;20.02;;;;;;;;;;5068988;28;20750;-70
2021/09/17 14:10:47;;;;;;;33.40;20.70;;;;;;;;;;5070038;28;20020;-69
2021/09/17 14:13:12;;;;;;;34.85;20.40;;;;;;;;;;5070110;28;20048;-69
2021/09/17 14:15:38;;;;;;;33.15;20.75;;;;;;;;;;5069669;28;20468;-69
2021/09/17 14:18:03;;;;;;;31.00;21.25;;;;;;;;;;5070376;28;20020;-69